Time;durP1;ratioP1;P1;durP2;ratioP2;P2;SDS_P1;SDS_P2;PMS_P1;PMS_P2;Temp;Humidity;BMP_temperature;BMP_pressure;BME280_temperature;BME280_humidity;BME280_pressure;Samples;Min_cycle;Max_cycle;Signal;HPM_P1;HPM_P2
2022/11/01 05:00:34;;;;;;;9.50;5.30;;;9.40;96.30;;;;;;6120065;23;21295;31
2022/11/01 05:03:06;;;;;;;11.07;5.77;;;9.30;96.30;;;;;;4986385;28;20469;-81
2022/11/01 05:05:33;;;;;;;12.67;6.47;;;9.30;96.30;;;;;;4958833;28;20484;-82
2022/11/01 05:08:09;;;;;;;8.43;5.30;;;;;;;;;;4958465;28;20457;-81
2022/11/01 05:10:37;;;;;;;13.50;5.87;;;9.20;96.30;;;;;;4958219;28;20544;-82
2022/11/01 05:13:04;;;;;;;14.67;7.40;;;9.20;96.30;;;;;;4974654;28;20919;-82
2022/11/01 05:15:30;;;;;;;21.20;7.97;;;9.20;96.30;;;;;;4976541;28;20456;-83
2022/11/01 05:17:56;;;;;;;12.83;8.33;;;;;;;;;;4976029;28;20417;-81
2022/11/01 05:28:12;;;;;;;12.20;7.40;;;;;;;;;;5715428;23;20501;-78
2022/11/01 05:30:39;;;;;;;9.30;6.83;;;9.00;96.30;;;;;;5033034;28;20430;-78
2022/11/01 05:33:06;;;;;;;12.50;7.73;;;9.00;96.30;;;;;;5031805;28;20419;-77
2022/11/01 05:35:33;;;;;;;16.20;8.20;;;9.00;96.30;;;;;;5031898;28;20721;-77
2022/11/01 05:38:00;;;;;;;12.93;7.90;;;9.00;96.30;;;;;;5030798;28;20829;-77
2022/11/01 05:40:26;;;;;;;13.03;7.50;;;9.10;96.30;;;;;;5032988;28;20391;-79
2022/11/01 05:42:51;;;;;;;11.70;7.50;;;9.20;96.30;;;;;;5015365;28;20411;-79
2022/11/01 05:45:17;;;;;;;13.33;9.03;;;9.30;96.30;;;;;;5033817;28;20255;-79
2022/11/01 05:47:43;;;;;;;15.90;9.03;;;9.30;96.30;;;;;;5032473;28;20671;-79
2022/11/01 05:50:10;;;;;;;14.73;8.70;;;9.30;96.30;;;;;;5031399;28;20168;-79
2022/11/01 05:52:36;;;;;;;22.63;9.13;;;9.20;96.30;;;;;;5033822;28;20501;-79
2022/11/01 05:55:01;;;;;;;14.23;9.27;;;9.20;96.30;;;;;;5033429;28;20414;-79
2022/11/01 05:57:27;;;;;;;14.93;9.20;;;9.20;96.30;;;;;;5031002;28;20245;-79
2022/11/01 05:59:52;;;;;;;17.03;8.67;;;9.10;96.30;;;;;;5032680;28;20184;-80
2022/11/01 06:02:18;;;;;;;16.53;8.87;;;9.10;96.30;;;;;;5034811;28;20206;-80
2022/11/01 06:04:43;;;;;;;21.43;9.03;;;9.10;96.30;;;;;;5031350;28;20644;-80
2022/11/01 06:07:09;;;;;;;17.13;9.53;;;9.20;96.30;;;;;;5031961;28;20200;-80
2022/11/01 06:09:34;;;;;;;15.13;8.90;;;9.30;96.30;;;;;;5031261;28;20551;-80
2022/11/01 06:12:00;;;;;;;15.73;9.50;;;9.40;96.30;;;;;;5031548;28;20204;-79
2022/11/01 06:14:25;;;;;;;15.00;8.77;;;9.80;96.30;;;;;;5031452;28;20215;-79
2022/11/01 06:16:51;;;;;;;14.90;10.10;;;;;;;;;;5031901;28;20168;-81
2022/11/01 06:19:17;;;;;;;14.00;8.97;;;;;;;;;;5032265;28;20732;-79
2022/11/01 06:21:42;;;;;;;24.40;9.57;;;9.80;96.30;;;;;;5030825;28;20446;-80
2022/11/01 06:24:10;;;;;;;17.63;9.03;;;9.80;96.30;;;;;;5032270;28;20180;-80
2022/11/01 06:26:36;;;;;;;18.13;8.90;;;;;;;;;;5031598;28;20666;-79
2022/11/01 06:29:02;;;;;;;17.10;9.07;;;9.80;96.30;;;;;;5030307;28;20546;-79
2022/11/01 06:31:28;;;;;;;13.60;8.63;;;9.80;96.30;;;;;;5030657;28;20517;-79
2022/11/01 06:33:54;;;;;;;16.83;6.00;;;10.30;96.30;;;;;;5031999;28;20490;-80
2022/11/01 06:36:21;;;;;;;13.60;6.50;;;10.70;96.30;;;;;;5030700;28;20172;-80
2022/11/01 06:38:47;;;;;;;10.80;5.43;;;;;;;;;;5031342;28;20259;-79
2022/11/01 06:41:12;;;;;;;13.67;4.00;;;11.20;96.30;;;;;;5035769;28;20767;-79
2022/11/01 06:43:38;;;;;;;9.90;4.77;;;12.10;96.30;;;;;;5018259;28;20449;-79
2022/11/01 06:46:04;;;;;;;12.27;4.20;;;12.80;96.30;;;;;;5035990;28;20177;-78
2022/11/01 06:48:30;;;;;;;14.23;4.43;;;13.10;96.30;;;;;;5034033;28;20203;-79
2022/11/01 06:50:55;;;;;;;14.00;4.50;;;13.60;96.30;;;;;;5035772;28;20423;-79
2022/11/01 06:53:22;;;;;;;9.50;4.20;;;13.90;96.30;;;;;;5034521;28;20213;-79
2022/11/01 06:55:48;;;;;;;10.40;3.50;;;;;;;;;;5035930;28;20190;-79
2022/11/01 06:58:14;;;;;;;14.87;3.90;;;14.00;96.30;;;;;;5035663;28;20489;-79
2022/11/01 07:00:39;;;;;;;5.40;2.83;;;14.10;96.30;;;;;;5035745;28;20196;-79
2022/11/01 07:03:11;;;;;;;8.70;3.00;;;14.30;96.30;;;;;;5034781;28;20184;-80
2022/11/01 07:05:37;;;;;;;10.00;2.83;;;14.40;96.30;;;;;;5036072;28;20267;-80
2022/11/01 07:08:06;;;;;;;11.63;3.60;;;14.40;96.30;;;;;;5035159;28;20537;-79
2022/11/01 07:10:32;;;;;;;18.30;2.90;;;14.50;96.30;;;;;;5035534;28;20426;-80
2022/11/01 07:12:58;;;;;;;7.53;2.67;;;14.50;96.30;;;;;;5035842;28;20429;-79
2022/11/01 07:15:24;;;;;;;14.70;2.83;;;14.70;96.30;;;;;;5034379;28;20180;-79
2022/11/01 07:17:54;;;;;;;11.30;3.10;;;14.90;96.30;;;;;;5035589;28;20465;-80
2022/11/01 07:20:20;;;;;;;6.90;2.67;;;;;;;;;;5022196;28;20199;-80
2022/11/01 07:22:45;;;;;;;7.40;3.07;;;15.20;96.30;;;;;;5022434;28;20926;-80
2022/11/01 07:25:11;;;;;;;9.30;3.53;;;;;;;;;;5039454;28;20172;-81
2022/11/01 07:27:37;;;;;;;16.43;4.00;;;15.40;96.30;;;;;;5033037;28;21002;-81
2022/11/01 07:30:03;;;;;;;8.00;2.93;;;15.50;96.30;;;;;;5039682;28;20259;-81
2022/11/01 07:32:29;;;;;;;9.57;3.17;;;15.60;96.30;;;;;;5038877;28;20253;-81
2022/11/01 07:34:55;;;;;;;8.60;3.33;;;;;;;;;;5039144;28;20517;-81
2022/11/01 07:37:20;;;;;;;11.13;3.07;;;15.90;96.30;;;;;;5040398;28;20176;-81
2022/11/01 07:39:46;;;;;;;7.93;3.47;;;16.00;96.30;;;;;;5041637;28;20190;-81
2022/11/01 07:42:12;;;;;;;7.83;3.10;;;;;;;;;;5041345;28;20192;-81
2022/11/01 07:44:38;;;;;;;9.27;2.63;;;;;;;;;;5042914;28;20172;-82
2022/11/01 07:47:04;;;;;;;11.77;3.13;;;;;;;;;;5041412;28;20414;-81
2022/11/01 07:49:30;;;;;;;11.57;3.30;;;;;;;;;;5024128;28;20447;-81
2022/11/01 07:51:55;;;;;;;5.10;2.80;;;16.50;96.30;;;;;;5039600;28;20276;-81
2022/11/01 07:54:21;;;;;;;6.23;3.30;;;;;;;;;;5039409;28;20184;-82
2022/11/01 07:56:47;;;;;;;7.20;3.50;;;16.50;96.30;;;;;;5038322;28;20164;-81
2022/11/01 07:59:12;;;;;;;10.40;3.20;;;16.60;96.30;;;;;;5039746;28;20255;-81
2022/11/01 08:01:38;;;;;;;6.10;3.20;;;;;;;;;;5039128;28;20268;-81
2022/11/01 08:04:04;;;;;;;13.80;3.80;;;;;;;;;;5040154;28;20172;-82
2022/11/01 08:06:30;;;;;;;12.83;3.33;;;;;;;;;;5039448;28;20215;-81
2022/11/01 08:08:56;;;;;;;9.53;3.10;;;;;;;;;;5039959;28;20549;-81
2022/11/01 08:11:22;;;;;;;15.97;3.63;;;16.80;96.30;;;;;;5038974;28;20196;-81
2022/11/01 08:13:47;;;;;;;15.37;3.70;;;16.80;96.30;;;;;;5040805;28;20172;-81
2022/11/01 08:16:16;;;;;;;11.23;3.40;;;;;;;;;;5040414;28;20169;-81
2022/11/01 08:18:43;;;;;;;11.47;2.97;;;;;;;;;;5040883;28;20191;-81
2022/11/01 08:21:10;;;;;;;7.80;2.93;;;;;;;;;;5044280;28;20474;-80
2022/11/01 08:23:36;;;;;;;12.90;3.30;;;;;;;;;;5038402;28;20415;-80
2022/11/01 08:26:03;;;;;;;9.00;3.47;;;17.50;96.30;;;;;;5034115;28;20418;-80
2022/11/01 08:28:29;;;;;;;6.50;2.97;;;17.50;96.30;;;;;;5034151;28;20208;-79
2022/11/01 08:30:54;;;;;;;7.30;3.20;;;17.50;96.30;;;;;;5035544;28;20435;-81
2022/11/01 08:33:20;;;;;;;11.43;2.67;;;17.40;96.30;;;;;;5035751;28;20176;-81
2022/11/01 08:35:46;;;;;;;8.17;3.87;;;;;;;;;;5023203;28;20181;-81
2022/11/01 08:38:12;;;;;;;6.17;3.03;;;;;;;;;;5003501;28;20180;-81
2022/11/01 08:40:39;;;;;;;9.20;3.13;;;;;;;;;;5028215;28;20241;-82
2022/11/01 08:43:05;;;;;;;18.73;3.30;;;17.30;96.30;;;;;;5032430;28;20418;-79
2022/11/01 08:45:30;;;;;;;12.40;3.10;;;17.30;96.30;;;;;;5036416;28;20427;-80
2022/11/01 08:48:02;;;;;;;10.20;3.40;;;17.20;96.30;;;;;;5039918;28;20204;-79
2022/11/01 08:50:28;;;;;;;10.27;3.50;;;17.20;96.30;;;;;;5021443;28;20881;-80
2022/11/01 08:52:53;;;;;;;12.43;3.00;;;17.10;96.30;;;;;;5035920;28;20427;-81
2022/11/01 08:55:20;;;;;;;8.23;3.00;;;17.10;96.30;;;;;;5019308;28;20168;-81
2022/11/01 08:57:45;;;;;;;8.50;3.20;;;17.10;96.30;;;;;;5034750;28;20176;-80
2022/11/01 09:00:12;;;;;;;10.10;2.60;;;17.00;96.30;;;;;;5022528;28;20477;-80
2022/11/01 09:02:38;;;;;;;7.53;3.60;;;17.00;96.30;;;;;;5036479;28;20184;-80
2022/11/01 09:05:05;;;;;;;11.30;3.10;;;17.00;96.30;;;;;;5038595;28;20426;-81
2022/11/01 09:07:33;;;;;;;9.17;3.10;;;16.90;96.30;;;;;;5038700;28;20200;-81
2022/11/01 09:09:59;;;;;;;7.33;3.00;;;;;;;;;;5039738;28;20442;-80
2022/11/01 09:12:25;;;;;;;9.77;3.30;;;17.00;96.30;;;;;;5040740;28;20785;-80
2022/11/01 09:14:50;;;;;;;6.70;2.93;;;17.00;96.30;;;;;;5039932;28;20663;-80
2022/11/01 09:17:16;;;;;;;8.43;2.40;;;17.00;96.30;;;;;;5040033;28;20168;-80
2022/11/01 09:19:41;;;;;;;14.40;3.07;;;;;;;;;;5040845;28;20199;-81
2022/11/01 09:22:07;;;;;;;8.93;3.33;;;16.80;96.30;;;;;;5040738;28;20199;-80
2022/11/01 09:24:40;;;;;;;11.90;3.50;;;;;;;;;;5151280;27;20548;-79
2022/11/01 09:27:07;;;;;;;10.20;3.77;;;16.80;96.30;;;;;;5139466;27;20426;-81
2022/11/01 09:29:33;;;;;;;10.53;3.50;;;16.80;96.30;;;;;;5143446;27;20179;-80
2022/11/01 09:31:59;;;;;;;3.63;2.73;;;;;;;;;;5152543;27;20433;-80
2022/11/01 09:34:24;;;;;;;10.70;3.30;;;16.80;96.30;;;;;;5151443;27;20312;-79
2022/11/01 09:36:50;;;;;;;9.63;2.47;;;16.70;96.30;;;;;;5141940;27;20204;-79
2022/11/01 09:39:20;;;;;;;11.80;3.70;;;16.70;96.30;;;;;;5141075;27;20181;-79
2022/11/01 09:41:53;;;;;;;9.57;2.77;;;16.60;96.30;;;;;;5147232;27;20192;-81
2022/11/01 09:44:26;;;;;;;5.70;2.33;;;16.60;96.30;;;;;;5148831;27;20441;-79
2022/11/01 09:46:55;;;;;;;8.33;2.40;;;16.60;96.30;;;;;;5143720;27;20456;-80
2022/11/01 09:49:25;;;;;;;8.73;2.63;;;16.60;96.30;;;;;;5152528;27;20421;-80
2022/11/01 09:51:51;;;;;;;5.20;2.00;;;16.60;96.30;;;;;;5150975;27;20433;-81
2022/11/01 09:54:19;;;;;;;4.33;2.63;;;;;;;;;;5139411;27;20450;-80
2022/11/01 09:57:16;;;;;;;4.50;2.70;;;16.60;96.30;;;;;;5138328;27;20196;-79
2022/11/01 09:59:45;;;;;;;7.20;2.00;;;16.60;96.30;;;;;;5144809;27;20413;-79
2022/11/01 10:02:14;;;;;;;6.60;2.40;;;16.60;96.30;;;;;;5149843;27;20963;-79
2022/11/01 10:04:52;;;;;;;11.00;2.37;;;16.70;96.30;;;;;;5151555;27;20409;-79
2022/11/01 10:07:41;;;;;;;7.77;2.47;;;16.80;96.30;;;;;;5149808;27;20408;-79
2022/11/01 10:10:41;;;;;;;3.50;1.90;;;16.80;96.30;;;;;;5155942;27;20885;-80
2022/11/01 10:13:19;;;;;;;4.40;2.13;;;16.80;96.30;;;;;;5156363;27;20420;-81
2022/11/01 10:16:09;;;;;;;4.17;2.37;;;16.70;96.30;;;;;;5157225;27;20408;-81
2022/11/01 10:18:54;;;;;;;5.87;2.60;;;16.60;96.30;;;;;;5119892;28;20403;-81
2022/11/01 10:21:21;;;;;;;6.87;2.40;;;16.60;96.30;;;;;;5136494;27;20442;-81
2022/11/01 10:23:52;;;;;;;12.67;2.70;;;16.60;96.30;;;;;;5133710;27;20459;-80
2022/11/01 10:26:20;;;;;;;10.40;2.40;;;16.60;96.30;;;;;;5134977;27;20414;-81
2022/11/01 10:28:54;;;;;;;7.60;2.80;;;;;;;;;;5135182;27;20920;-81
2022/11/01 10:31:22;;;;;;;9.00;2.87;;;;;;;;;;5131796;27;20538;-81
2022/11/01 10:33:54;;;;;;;10.77;2.90;;;16.60;96.30;;;;;;5136908;27;20898;-81
2022/11/01 10:36:25;;;;;;;7.97;2.80;;;16.60;96.30;;;;;;5121787;28;20427;-81
2022/11/01 10:39:01;;;;;;;7.80;2.70;;;16.70;96.30;;;;;;5123735;28;20415;-81
2022/11/01 10:41:41;;;;;;;6.67;2.47;;;16.80;96.30;;;;;;5123485;28;20456;-81
2022/11/01 10:44:31;;;;;;;7.73;2.40;;;16.70;96.30;;;;;;5121222;28;20468;-81
2022/11/01 10:46:59;;;;;;;5.20;2.27;;;16.60;96.30;;;;;;5109326;28;20429;-81
2022/11/01 10:49:31;;;;;;;4.00;1.70;;;;;;;;;;5107793;28;20848;-81
2022/11/01 10:52:03;;;;;;;4.77;2.43;;;16.60;96.30;;;;;;5119307;27;20443;-80
2022/11/01 10:54:31;;;;;;;4.57;1.83;;;;;;;;;;5115889;27;20425;-81
2022/11/01 10:57:05;;;;;;;14.70;2.20;;;16.50;96.30;;;;;;5116723;28;20452;-81
2022/11/01 10:59:34;;;;;;;4.93;2.27;;;16.60;96.30;;;;;;5120302;27;20459;-81
2022/11/01 11:02:01;;;;;;;11.93;2.53;;;;;;;;;;5127106;27;20446;-81
2022/11/01 11:04:28;;;;;;;6.37;1.73;;;;;;;;;;5136914;27;20905;-82
2022/11/01 11:06:55;;;;;;;4.53;2.10;;;;;;;;;;5118786;27;20779;-82
2022/11/01 11:09:31;;;;;;;5.70;2.07;;;16.90;96.30;;;;;;5132414;27;20410;-81
2022/11/01 11:12:02;;;;;;;6.80;2.37;;;17.10;96.30;;;;;;5132017;27;20523;-81
2022/11/01 11:14:30;;;;;;;3.30;2.03;;;17.20;96.30;;;;;;5136581;27;20426;-82
2022/11/01 11:16:57;;;;;;;2.70;2.03;;;17.30;96.30;;;;;;5133185;27;20478;-80
2022/11/01 11:19:28;;;;;;;4.77;2.20;;;;;;;;;;5122437;28;20415;-80
2022/11/01 13:00:20;;;;;;;5.90;2.10;;;;;;;;;;5033419;28;20478;-84
2022/11/01 13:03:04;;;;;;;4.00;1.87;;;16.70;96.30;;;;;;5016277;28;20459;-82
2022/11/01 13:05:58;;;;;;;5.50;2.17;;;16.60;96.30;;;;;;5014633;28;20503;-82
2022/11/01 13:08:48;;;;;;;7.53;2.70;;;16.60;96.30;;;;;;5016902;28;20408;-81
2022/11/01 13:11:38;;;;;;;6.43;2.00;;;;;;;;;;5028969;28;20590;-81
2022/11/01 13:14:29;;;;;;;5.50;1.80;;;16.50;96.30;;;;;;5008238;28;20427;-82
2022/11/01 13:17:21;;;;;;;2.70;1.80;;;16.60;96.30;;;;;;5034864;28;20403;-80
2022/11/01 13:20:13;;;;;;;8.60;1.97;;;16.50;96.30;;;;;;4995475;28;20506;-80
2022/11/01 13:22:44;;;;;;;5.17;1.73;;;16.50;96.30;;;;;;5029746;28;20416;-80
2022/11/01 13:25:25;;;;;;;7.30;2.60;;;16.40;96.30;;;;;;5008345;28;20416;-80
2022/11/01 13:28:03;;;;;;;2.83;1.60;;;16.40;96.30;;;;;;5014035;28;20503;-80
2022/11/01 13:30:30;;;;;;;4.27;1.60;;;16.30;96.30;;;;;;5014993;28;20487;-81
2022/11/01 13:32:57;;;;;;;3.40;1.63;;;16.40;96.30;;;;;;5013388;28;20505;-78
2022/11/01 13:35:38;;;;;;;6.40;1.87;;;16.30;96.30;;;;;;5012336;28;20412;-79
2022/11/01 13:38:20;;;;;;;3.97;1.50;;;16.20;96.30;;;;;;5012134;28;20479;-78
2022/11/01 13:41:00;;;;;;;5.30;1.70;;;16.20;96.30;;;;;;5010455;28;20539;-78
2022/11/01 13:43:41;;;;;;;3.10;1.90;;;;;;;;;;5012697;28;20447;-79
2022/11/01 13:46:07;;;;;;;4.10;1.80;;;;;;;;;;5010000;28;20391;-78
2022/11/01 13:48:55;;;;;;;4.63;2.20;;;16.00;96.30;;;;;;5011570;28;20396;-78
2022/11/01 13:51:47;;;;;;;3.97;1.70;;;16.00;96.30;;;;;;5010835;28;20204;-78
2022/11/01 13:54:20;;;;;;;3.90;2.30;;;16.10;96.30;;;;;;5007509;28;20482;-79
2022/11/01 13:56:56;;;;;;;3.07;1.60;;;16.10;96.30;;;;;;5010225;28;20408;-79
2022/11/01 13:59:55;;;;;;;6.23;2.10;;;16.00;96.30;;;;;;5014528;28;20450;-78
2022/11/01 14:02:24;;;;;;;5.03;1.80;;;16.00;96.30;;;;;;5010774;28;20978;-79
2022/11/01 14:05:11;;;;;;;11.60;3.03;;;15.90;96.30;;;;;;5031639;28;20419;-79
2022/11/01 14:08:02;;;;;;;4.37;2.00;;;15.80;96.30;;;;;;5031405;28;20498;-79
2022/11/01 14:10:27;;;;;;;4.07;2.00;;;15.80;96.30;;;;;;5013313;28;20787;-79
2022/11/01 14:13:09;;;;;;;5.33;2.10;;;15.70;96.30;;;;;;5014212;28;20543;-79
2022/11/01 14:15:57;;;;;;;3.80;1.90;;;15.70;96.30;;;;;;5015835;28;20207;-79
2022/11/01 14:18:23;;;;;;;7.80;2.10;;;15.70;96.30;;;;;;5015253;28;20415;-79
2022/11/01 14:20:50;;;;;;;3.87;1.70;;;15.70;96.30;;;;;;5015639;28;20432;-80
2022/11/01 14:23:28;;;;;;;7.03;1.60;;;15.70;96.30;;;;;;5015415;28;20211;-77
2022/11/01 14:26:24;;;;;;;2.33;1.70;;;15.60;96.30;;;;;;5015581;28;20404;-80
2022/11/01 14:28:57;;;;;;;2.43;1.67;;;15.50;96.30;;;;;;5015059;28;20420;-80
2022/11/01 14:31:26;;;;;;;4.87;1.63;;;15.50;96.30;;;;;;5016293;28;20916;-79
2022/11/01 14:33:52;;;;;;;4.13;2.07;;;15.50;96.30;;;;;;5015613;28;20838;-79
2022/11/01 14:36:23;;;;;;;3.70;1.73;;;15.50;96.30;;;;;;5014579;28;20415;-79
2022/11/01 14:38:59;;;;;;;2.50;1.90;;;15.50;96.30;;;;;;5014605;28;20408;-82
2022/11/01 14:41:32;;;;;;;2.93;1.67;;;15.40;96.30;;;;;;5013720;28;20545;-79
2022/11/01 14:44:10;;;;;;;4.93;1.60;;;15.40;96.30;;;;;;5013888;28;20565;-80
2022/11/01 14:46:40;;;;;;;4.93;2.10;;;15.40;96.30;;;;;;5016232;28;20446;-80
2022/11/01 14:49:18;;;;;;;7.93;2.43;;;15.30;96.30;;;;;;4995253;28;20951;-78
2022/11/01 14:52:24;;;;;;;3.80;1.73;;;15.20;96.30;;;;;;5004809;28;20427;-79
2022/11/01 14:54:58;;;;;;;3.90;2.17;;;15.20;96.30;;;;;;4994085;28;20441;-80
2022/11/01 14:57:31;;;;;;;8.57;2.17;;;15.20;96.30;;;;;;5013164;28;20476;-80
2022/11/01 14:59:58;;;;;;;5.87;1.80;;;15.20;96.30;;;;;;5011723;28;20818;-79
2022/11/01 15:02:32;;;;;;;8.47;2.07;;;15.20;96.30;;;;;;5016537;28;20443;-78
2022/11/01 15:04:59;;;;;;;3.23;2.03;;;15.10;96.30;;;;;;5029576;28;20414;-78
2022/11/01 15:07:28;;;;;;;3.50;1.80;;;15.00;96.30;;;;;;5026047;28;20475;-78
2022/11/01 15:10:14;;;;;;;3.07;1.53;;;15.00;96.30;;;;;;5012685;28;21261;-80
2022/11/01 15:12:51;;;;;;;11.67;2.03;;;15.00;96.30;;;;;;5014064;28;20456;-78
2022/11/01 15:15:35;;;;;;;5.00;1.70;;;14.90;96.30;;;;;;5014733;28;20450;-79
2022/11/01 15:18:13;;;;;;;6.97;1.90;;;14.80;96.30;;;;;;5028365;28;20419;-78
2022/11/01 15:20:42;;;;;;;4.10;1.90;;;14.70;96.30;;;;;;5033794;28;20439;-80
2022/11/01 15:23:18;;;;;;;3.90;2.30;;;14.60;96.30;;;;;;5032781;28;20447;-78
2022/11/01 15:25:53;;;;;;;7.07;2.10;;;14.50;96.30;;;;;;5015846;28;20404;-80
2022/11/01 15:28:26;;;;;;;3.23;2.20;;;14.40;96.30;;;;;;5013874;28;20427;-80
2022/11/01 15:30:57;;;;;;;7.43;1.83;;;14.30;96.30;;;;;;5014388;28;20437;-80
2022/11/01 15:33:31;;;;;;;3.03;1.63;;;14.20;96.30;;;;;;5018412;28;20418;-80
2022/11/01 15:35:58;;;;;;;4.90;1.80;;;;;;;;;;5034239;28;20403;-80
2022/11/01 15:38:24;;;;;;;4.70;1.80;;;13.80;96.30;;;;;;5033002;28;20411;-80
2022/11/01 15:40:51;;;;;;;5.63;1.80;;;13.70;96.30;;;;;;5021375;28;20439;-80
2022/11/01 15:43:20;;;;;;;8.00;1.80;;;13.60;96.30;;;;;;5011685;28;20463;-80
2022/11/01 15:46:07;;;;;;;3.40;2.03;;;13.60;96.30;;;;;;5020792;28;20447;-80
2022/11/01 15:48:35;;;;;;;2.50;1.73;;;13.70;96.30;;;;;;5018026;28;20427;-80
2022/11/01 15:51:12;;;;;;;5.70;2.37;;;13.70;96.30;;;;;;5002710;28;20483;-80
2022/11/01 15:53:39;;;;;;;8.90;2.47;;;13.50;96.30;;;;;;5014521;28;20412;-80
2022/11/01 15:56:14;;;;;;;2.80;1.70;;;13.20;96.30;;;;;;5014710;28;20466;-80
2022/11/01 15:58:44;;;;;;;3.97;2.23;;;13.00;96.30;;;;;;5013817;28;20419;-80
2022/11/01 16:01:14;;;;;;;18.00;12.07;;;12.90;96.30;;;;;;5014747;28;20428;-80
2022/11/01 16:03:49;;;;;;;5.40;3.40;;;12.90;96.30;;;;;;5035011;28;20438;-80
2022/11/01 16:06:20;;;;;;;4.00;3.30;;;12.80;96.30;;;;;;5034532;28;20391;-80
2022/11/01 16:08:51;;;;;;;5.93;3.30;;;12.70;96.30;;;;;;5012581;28;21110;-80
2022/11/01 16:11:19;;;;;;;4.70;2.57;;;12.50;96.30;;;;;;5017310;28;20527;-80
2022/11/01 16:14:01;;;;;;;7.63;2.33;;;12.50;96.30;;;;;;5034343;28;20449;-80
2022/11/01 16:16:27;;;;;;;3.00;2.13;;;12.50;96.30;;;;;;5020410;28;20427;-80
2022/11/01 16:18:53;;;;;;;4.90;1.80;;;12.40;96.30;;;;;;5014104;28;20838;-80
2022/11/01 16:21:19;;;;;;;2.47;1.60;;;12.40;96.30;;;;;;5013027;28;20442;-80
2022/11/01 16:24:14;;;;;;;5.10;2.37;;;12.20;96.30;;;;;;5012278;28;20459;-80
2022/11/01 16:27:00;;;;;;;3.90;2.20;;;12.10;96.30;;;;;;5010164;28;20177;-80
2022/11/01 16:29:49;;;;;;;6.87;2.47;;;12.10;96.30;;;;;;5013571;28;20400;-80
2022/11/01 16:32:22;;;;;;;8.93;2.60;;;12.00;96.30;;;;;;5012631;28;20427;-80
2022/11/01 16:34:49;;;;;;;2.50;2.00;;;;;;;;;;5011789;28;20415;-80
2022/11/01 16:37:19;;;;;;;5.83;2.10;;;;;;;;;;5011009;28;20515;-80
2022/11/01 16:39:48;;;;;;;5.77;3.37;;;11.90;96.30;;;;;;5010099;28;20416;-80
2022/11/01 16:42:15;;;;;;;11.20;8.50;;;;;;;;;;5013154;28;20465;-80
2022/11/01 16:44:41;;;;;;;17.27;11.87;;;11.70;96.30;;;;;;5012483;28;20458;-80
2022/11/01 16:47:10;;;;;;;5.70;3.43;;;11.60;96.30;;;;;;5012432;28;20487;-80
2022/11/01 16:49:45;;;;;;;4.80;2.53;;;11.60;96.30;;;;;;5012924;28;20978;-80
2022/11/01 16:52:11;;;;;;;6.13;2.60;;;11.80;96.30;;;;;;5011554;28;20442;-80
2022/11/01 16:54:37;;;;;;;8.27;2.10;;;;;;;;;;5031075;28;20825;-80
2022/11/01 16:57:04;;;;;;;3.60;2.10;;;12.30;96.30;;;;;;5030392;28;20415;-80
2022/11/01 16:59:32;;;;;;;8.20;2.50;;;12.40;96.30;;;;;;5031989;28;20451;-80
2022/11/01 17:02:01;;;;;;;7.70;2.93;;;12.40;96.30;;;;;;5030982;28;20439;-80
2022/11/01 17:04:27;;;;;;;3.27;1.90;;;12.50;96.30;;;;;;5030991;28;20474;-80
2022/11/01 17:06:54;;;;;;;6.30;2.30;;;12.30;96.30;;;;;;5031675;28;20481;-80
2022/11/01 17:09:21;;;;;;;9.70;2.23;;;12.40;96.30;;;;;;5032243;28;20540;-80
2022/11/01 17:11:49;;;;;;;5.70;2.70;;;12.40;96.30;;;;;;5030671;28;20478;-80
2022/11/01 17:14:19;;;;;;;4.73;2.70;;;12.60;96.30;;;;;;5032826;28;20564;-80
2022/11/01 17:16:46;;;;;;;6.93;2.40;;;12.70;96.30;;;;;;5012745;28;20432;-80
2022/11/01 17:19:17;;;;;;;3.37;2.43;;;;;;;;;;4997025;28;20409;-80
2022/11/01 18:05:49;;;;;;;13.80;8.90;;;13.00;96.30;;;;;;5634568;23;20491;-78
2022/11/01 18:08:19;;;;;;;14.50;13.07;;;12.90;96.30;;;;;;5015394;28;20499;-79
2022/11/01 18:11:14;;;;;;;3.20;2.90;;;12.90;96.30;;;;;;5015501;28;20216;-79
2022/11/01 18:13:59;;;;;;;15.07;8.17;;;12.70;96.30;;;;;;5015681;28;20419;-79
2022/11/01 18:16:39;;;;;;;11.27;6.93;;;12.60;96.30;;;;;;5014302;28;20561;-79
2022/11/01 18:19:33;;;;;;;8.80;4.77;;;12.50;96.30;;;;;;5015319;28;20479;-80
2022/11/01 18:22:28;;;;;;;9.90;7.40;;;12.50;96.30;;;;;;4995599;28;21024;-79
2022/11/01 18:25:26;;;;;;;15.67;10.57;;;12.40;96.30;;;;;;4995920;28;20879;-78
2022/11/01 18:27:53;;;;;;;11.80;9.30;;;12.40;96.30;;;;;;4974236;28;20777;-78
2022/11/01 18:30:20;;;;;;;61.00;41.73;;;12.40;96.30;;;;;;4994482;28;20416;-78
2022/11/01 18:33:00;;;;;;;22.60;12.37;;;12.30;96.30;;;;;;5006837;28;20427;-78
2022/11/01 18:35:26;;;;;;;23.97;16.83;;;;;;;;;;5014792;28;20414;-79
2022/11/01 18:38:24;;;;;;;24.27;11.40;;;12.30;96.30;;;;;;5003282;28;20404;-78
2022/11/01 18:41:01;;;;;;;3.03;2.10;;;12.40;96.30;;;;;;5005706;28;20444;-78
2022/11/01 18:43:32;;;;;;;12.70;9.43;;;12.40;96.30;;;;;;4996476;28;20710;-77
2022/11/01 18:46:01;;;;;;;10.30;7.27;;;12.20;96.30;;;;;;5015752;28;20454;-77
2022/11/01 18:48:27;;;;;;;2.33;2.10;;;12.10;96.30;;;;;;5001138;28;20428;-78
2022/11/01 18:51:04;;;;;;;2.67;2.27;;;12.30;96.30;;;;;;4994132;28;20440;-78
2022/11/01 18:53:31;;;;;;;5.40;2.10;;;12.30;96.30;;;;;;4994151;28;20420;-79
2022/11/01 18:56:11;;;;;;;5.80;2.30;;;12.40;96.30;;;;;;4994879;28;20416;-78
2022/11/01 18:58:37;;;;;;;5.03;1.97;;;12.30;96.30;;;;;;4993643;28;20794;-79
2022/11/01 19:01:16;;;;;;;8.93;4.00;;;12.20;96.30;;;;;;4995576;28;20440;-79
2022/11/01 19:03:42;;;;;;;9.20;1.80;;;;;;;;;;4993448;28;20456;-79
2022/11/01 19:06:19;;;;;;;4.13;2.00;;;12.00;96.30;;;;;;4993970;28;20431;-78
2022/11/01 19:08:54;;;;;;;4.00;2.00;;;;;;;;;;4992145;28;20765;-77
2022/11/01 19:11:20;;;;;;;10.00;3.27;;;12.00;96.30;;;;;;4992452;28;20842;-80
2022/11/01 19:13:47;;;;;;;8.27;2.43;;;12.00;96.30;;;;;;4993809;28;20503;-79
2022/11/01 19:16:13;;;;;;;30.23;17.70;;;11.90;96.30;;;;;;4992696;28;20184;-78
2022/11/01 19:18:40;;;;;;;3.13;2.13;;;11.90;96.30;;;;;;4991855;28;20512;-78
2022/11/01 19:21:14;;;;;;;2.13;1.57;;;11.90;96.30;;;;;;4994791;28;20948;-78
2022/11/01 19:23:44;;;;;;;2.50;1.40;;;11.70;96.30;;;;;;4994858;28;20448;-78
2022/11/01 19:26:24;;;;;;;3.40;1.50;;;11.90;96.30;;;;;;4994795;28;20440;-78
2022/11/01 19:28:50;;;;;;;3.23;1.33;;;12.00;96.30;;;;;;5001132;28;20411;-78
2022/11/01 19:31:30;;;;;;;2.60;1.20;;;12.10;96.30;;;;;;5014252;28;20498;-79
2022/11/01 19:34:02;;;;;;;3.10;1.70;;;12.00;96.30;;;;;;5014154;28;20204;-76
2022/11/01 19:36:39;;;;;;;1.70;1.20;;;11.90;96.30;;;;;;5014670;28;20408;-78
2022/11/01 19:39:20;;;;;;;2.30;1.50;;;11.80;96.30;;;;;;5014596;28;20435;-78
2022/11/01 19:41:46;;;;;;;8.87;1.90;;;11.80;96.30;;;;;;5014406;28;20436;-78
2022/11/01 19:44:18;;;;;;;4.20;2.53;;;11.60;96.30;;;;;;5013038;28;20509;-78
2022/11/01 19:46:44;;;;;;;7.03;2.93;;;11.50;96.30;;;;;;5013786;28;20157;-80
2022/11/01 19:49:23;;;;;;;5.87;2.17;;;11.40;96.30;;;;;;5014138;28;20471;-80
2022/11/01 19:52:12;;;;;;;9.57;2.33;;;11.50;96.30;;;;;;5012907;28;20192;-78
2022/11/01 19:54:40;;;;;;;2.50;1.83;;;11.60;96.30;;;;;;5012870;28;20938;-79
2022/11/01 19:57:30;;;;;;;7.60;2.53;;;11.50;96.30;;;;;;5013700;28;20454;-80
2022/11/01 20:00:16;;;;;;;2.73;1.20;;;11.50;96.30;;;;;;5012875;28;20417;-80
2022/11/01 20:02:42;;;;;;;2.00;1.03;;;;;;;;;;5013919;28;20396;-78
2022/11/01 20:05:32;;;;;;;5.53;2.70;;;11.50;96.30;;;;;;5013761;28;20515;-78
2022/11/01 20:08:19;;;;;;;4.17;1.80;;;11.40;96.30;;;;;;5012742;28;20420;-78
2022/11/01 20:10:44;;;;;;;2.50;1.50;;;11.30;96.30;;;;;;5012571;28;20534;-79
2022/11/01 20:13:10;;;;;;;3.13;1.10;;;11.40;96.30;;;;;;5013887;28;20961;-78
2022/11/01 20:15:36;;;;;;;2.33;1.10;;;11.50;96.30;;;;;;5013777;28;20264;-79
2022/11/01 20:18:01;;;;;;;2.00;1.40;;;11.50;96.30;;;;;;5011975;28;20633;-77
2022/11/01 20:20:27;;;;;;;3.93;1.17;;;11.40;96.30;;;;;;5012358;28;20549;-79
2022/11/01 20:22:52;;;;;;;3.70;1.67;;;11.40;96.30;;;;;;5012282;28;20262;-77
2022/11/01 20:25:18;;;;;;;3.63;1.57;;;11.40;96.30;;;;;;5013579;28;20662;-78
2022/11/01 20:27:43;;;;;;;4.10;2.07;;;11.40;96.30;;;;;;5011825;28;20725;-78
2022/11/01 20:30:09;;;;;;;3.90;1.20;;;11.40;96.30;;;;;;5012280;28;20181;-79
2022/11/01 20:32:38;;;;;;;2.60;1.63;;;;;;;;;;5012140;28;20267;-78
2022/11/01 20:35:04;;;;;;;5.83;1.20;;;11.40;96.30;;;;;;5013470;28;20644;-78
2022/11/01 20:37:30;;;;;;;2.80;1.40;;;11.30;96.30;;;;;;5012855;28;20408;-79
2022/11/01 20:39:56;;;;;;;3.60;1.30;;;11.30;96.30;;;;;;5013415;28;20831;-79
2022/11/01 20:42:23;;;;;;;2.87;1.23;;;;;;;;;;5011887;28;20196;-84
2022/11/01 20:44:49;;;;;;;2.03;1.13;;;11.40;96.30;;;;;;5013439;28;20201;-78
2022/11/01 20:47:14;;;;;;;7.70;1.10;;;11.30;96.30;;;;;;5013060;28;20415;-78
2022/11/01 20:49:40;;;;;;;2.60;1.10;;;11.20;96.30;;;;;;5013612;28;20574;-79
2022/11/01 20:52:05;;;;;;;4.30;1.67;;;11.00;96.30;;;;;;5013673;28;20625;-77
2022/11/01 20:54:31;;;;;;;4.40;1.37;;;11.00;96.30;;;;;;5013663;28;20557;-78